createdAt,value
2017-07-17T00:00:31.208Z,4.00
2017-07-17T00:02:58.829Z,4.90
2017-07-17T00:05:27.235Z,4.33
2017-07-17T00:07:54.853Z,4.30
2017-07-17T00:10:23.227Z,4.10
2017-07-17T00:12:50.859Z,4.03
2017-07-17T00:15:19.233Z,4.80
2017-07-17T00:17:47.605Z,5.00
2017-07-17T00:20:15.269Z,5.03
2017-07-17T00:22:42.871Z,4.77
2017-07-17T00:25:10.470Z,4.37
2017-07-17T00:27:38.122Z,4.97
2017-07-17T00:30:05.728Z,5.17
2017-07-17T00:32:33.367Z,4.50
2017-07-17T00:35:01.762Z,5.07
2017-07-17T00:37:29.369Z,3.90
2017-07-17T00:39:56.995Z,4.50
2017-07-17T00:42:24.627Z,4.03
2017-07-17T00:44:52.237Z,4.13
2017-07-17T00:47:19.846Z,4.00
2017-07-17T00:49:48.261Z,4.20
2017-07-17T00:52:15.891Z,4.17
2017-07-17T00:54:43.501Z,4.13
2017-07-17T00:57:11.131Z,3.27
2017-07-17T00:59:38.749Z,3.70
2017-07-17T01:02:06.381Z,4.45
2017-07-17T01:04:34.050Z,4.40
2017-07-17T01:07:01.647Z,3.47
2017-07-17T01:09:30.028Z,4.00
2017-07-17T01:11:57.677Z,4.03
2017-07-17T01:14:25.299Z,3.30
2017-07-17T01:16:53.676Z,3.80
2017-07-17T01:19:21.324Z,3.87
2017-07-17T01:21:48.933Z,4.10
2017-07-17T01:24:16.537Z,4.07
2017-07-17T01:26:44.166Z,3.80
2017-07-17T01:29:11.779Z,3.80
2017-07-17T01:31:39.391Z,3.50
2017-07-17T01:34:07.037Z,3.60
2017-07-17T01:36:34.670Z,3.05
2017-07-17T01:39:02.266Z,3.47
2017-07-17T01:41:30.701Z,3.60
2017-07-17T01:43:58.326Z,3.55
2017-07-17T01:46:25.937Z,3.70
2017-07-17T01:48:54.348Z,4.20
2017-07-17T01:51:21.948Z,3.57
2017-07-17T01:53:50.319Z,3.77
2017-07-17T01:56:18.027Z,3.97
2017-07-17T01:58:45.661Z,4.17
2017-07-17T02:01:13.255Z,4.40
2017-07-17T02:03:40.943Z,3.90
2017-07-17T02:06:08.578Z,4.37
2017-07-17T02:08:36.193Z,4.10
2017-07-17T02:11:03.868Z,3.60
2017-07-17T02:13:31.471Z,4.27
2017-07-17T02:15:59.110Z,4.22
2017-07-17T02:18:26.747Z,4.20
2017-07-17T02:20:54.351Z,4.60
2017-07-17T02:23:21.967Z,5.17
2017-07-17T02:25:50.371Z,4.30
2017-07-17T02:28:18.004Z,3.95
2017-07-17T02:30:45.606Z,4.03
2017-07-17T02:33:13.240Z,4.30
2017-07-17T02:35:40.877Z,4.40
2017-07-17T02:38:08.514Z,4.15
2017-07-17T02:40:36.204Z,6.45
2017-07-17T02:43:03.838Z,3.80
2017-07-17T02:45:31.488Z,4.72
2017-07-17T02:47:59.899Z,5.20
2017-07-17T02:50:27.519Z,4.53
2017-07-17T02:52:55.122Z,4.50
2017-07-17T02:55:22.794Z,4.18
2017-07-17T02:57:50.428Z,4.15
2017-07-17T03:00:18.831Z,4.50
2017-07-17T03:02:46.494Z,4.90
2017-07-17T03:05:14.104Z,4.23
2017-07-17T03:07:42.489Z,4.70
2017-07-17T03:10:10.146Z,4.53
2017-07-17T03:12:37.761Z,5.53
2017-07-17T03:15:06.140Z,4.57
2017-07-17T03:17:33.799Z,4.82
2017-07-17T03:20:01.420Z,3.90
2017-07-17T03:22:29.046Z,5.72
2017-07-17T03:24:56.729Z,5.47
2017-07-17T03:27:24.363Z,4.57
2017-07-17T03:29:52.745Z,5.27
2017-07-17T03:32:20.389Z,5.50
2017-07-17T03:34:47.991Z,6.20
2017-07-17T03:37:16.389Z,5.78
2017-07-17T03:39:44.040Z,6.10
2017-07-17T03:42:11.677Z,5.35
2017-07-17T03:44:40.040Z,5.80
2017-07-17T03:47:08.440Z,5.40
2017-07-17T03:49:36.052Z,6.40
2017-07-17T03:52:04.432Z,5.37
2017-07-17T03:54:32.100Z,5.65
2017-07-17T03:56:59.721Z,6.13
2017-07-17T03:59:27.343Z,6.23
2017-07-17T04:01:55.007Z,5.15
2017-07-17T04:04:22.634Z,5.95
2017-07-17T04:06:50.258Z,5.85
2017-07-17T04:09:17.919Z,6.00
2017-07-17T04:11:45.658Z,6.30
2017-07-17T04:14:13.273Z,6.07
2017-07-17T04:16:40.921Z,7.67
2017-07-17T04:19:08.553Z,5.95
2017-07-17T04:21:36.177Z,8.00
2017-07-17T04:24:03.815Z,6.60
2017-07-17T04:26:32.204Z,7.47
2017-07-17T04:28:59.813Z,7.07
2017-07-17T04:31:28.216Z,7.60
2017-07-17T04:33:55.834Z,6.87
2017-07-17T04:36:24.217Z,7.60
2017-07-17T04:38:51.856Z,7.20
2017-07-17T04:41:19.500Z,6.80
2017-07-17T04:43:47.208Z,7.95
2017-07-17T04:46:16.701Z,7.65
2017-07-17T04:48:44.316Z,7.20
2017-07-17T04:51:11.937Z,8.10
2017-07-17T04:53:39.582Z,6.97
2017-07-17T04:56:07.226Z,7.30
2017-07-17T04:58:34.881Z,7.13
2017-07-17T05:01:02.515Z,7.10
2017-07-17T05:03:30.125Z,6.37
2017-07-17T05:05:57.765Z,8.07
2017-07-17T05:08:25.399Z,7.40
2017-07-17T05:10:53.003Z,6.20
2017-07-17T05:13:20.600Z,7.37
2017-07-17T05:15:48.245Z,9.17
2017-07-17T05:18:15.864Z,8.27
2017-07-17T05:20:43.521Z,7.93
2017-07-17T05:23:11.147Z,7.97
2017-07-17T05:25:38.769Z,8.13
2017-07-17T05:28:07.157Z,7.53
2017-07-17T05:30:34.805Z,8.37
2017-07-17T05:33:02.401Z,9.03
2017-07-17T05:35:30.018Z,8.53
2017-07-17T05:37:57.673Z,10.60
2017-07-17T05:40:25.285Z,9.70
2017-07-17T05:42:52.898Z,9.80
2017-07-17T05:45:20.553Z,8.53
2017-07-17T05:47:48.924Z,10.10
2017-07-17T05:50:17.315Z,8.40
2017-07-17T05:52:44.951Z,9.30
2017-07-17T05:55:12.582Z,7.83
2017-07-17T05:57:40.209Z,8.23
2017-07-17T06:00:07.889Z,7.60
2017-07-17T06:02:35.506Z,8.33
2017-07-17T06:05:03.898Z,7.13
2017-07-17T06:07:31.546Z,7.30
2017-07-17T06:09:59.165Z,8.00
2017-07-17T06:12:27.546Z,8.77
2017-07-17T06:14:55.183Z,8.17
2017-07-17T06:17:23.549Z,8.70
2017-07-17T06:19:51.182Z,9.90
2017-07-17T06:22:19.601Z,11.40
2017-07-17T06:24:47.203Z,9.70
2017-07-17T06:27:15.585Z,9.67
2017-07-17T06:29:43.218Z,8.57
2017-07-17T06:32:10.836Z,10.23
2017-07-17T06:34:38.445Z,9.67
2017-07-17T06:37:06.101Z,11.53
2017-07-17T06:39:33.706Z,12.53
2017-07-17T06:42:01.336Z,11.37
2017-07-17T06:44:28.979Z,10.17
2017-07-17T06:46:57.362Z,10.57
2017-07-17T06:49:24.977Z,11.80
2017-07-17T06:51:52.619Z,9.17
2017-07-17T06:54:20.231Z,11.60
2017-07-17T06:56:47.873Z,11.35
2017-07-17T06:59:15.532Z,10.90
2017-07-17T07:01:43.140Z,9.33
2017-07-17T07:04:10.762Z,9.10
2017-07-17T07:06:38.393Z,9.93
2017-07-17T07:09:06.005Z,9.40
2017-07-17T07:11:33.619Z,11.33
2017-07-17T07:14:02.022Z,10.50
2017-07-17T07:16:29.649Z,10.00
2017-07-17T07:18:57.256Z,9.90
2017-07-17T07:21:25.679Z,10.77
2017-07-17T07:23:53.293Z,10.03
2017-07-17T07:26:20.959Z,10.30
2017-07-17T07:28:48.603Z,12.10
2017-07-17T07:31:16.217Z,12.00
2017-07-17T07:33:44.599Z,11.63
2017-07-17T07:36:12.252Z,13.07
2017-07-17T07:38:39.881Z,13.60
2017-07-17T07:41:07.496Z,14.40
2017-07-17T07:43:35.144Z,13.90
2017-07-17T07:46:02.752Z,12.17
2017-07-17T07:48:30.403Z,13.40
2017-07-17T07:50:58.039Z,13.30
2017-07-17T07:53:25.656Z,12.43
2017-07-17T07:55:53.289Z,16.27
2017-07-17T07:58:21.705Z,15.60
2017-07-17T08:00:49.353Z,13.00
2017-07-17T08:03:16.986Z,15.13
2017-07-17T08:05:44.641Z,14.17
2017-07-17T08:08:12.252Z,15.03
2017-07-17T08:10:39.892Z,14.43
2017-07-17T08:13:08.317Z,12.10
2017-07-17T08:15:35.926Z,13.10
2017-07-17T08:18:03.540Z,14.30
2017-07-17T08:20:31.947Z,13.70
2017-07-17T08:22:59.555Z,14.73
2017-07-17T08:25:27.952Z,11.80
2017-07-17T08:27:55.613Z,11.13
2017-07-17T08:30:23.224Z,13.07
2017-07-17T08:32:50.845Z,15.07
2017-07-17T08:35:18.533Z,13.60
2017-07-17T08:37:46.186Z,14.63
2017-07-17T08:40:13.821Z,14.47
2017-07-17T08:42:41.480Z,14.10
2017-07-17T08:45:09.095Z,14.70
2017-07-17T08:47:37.492Z,15.07
2017-07-17T08:50:05.141Z,14.00
2017-07-17T08:52:32.755Z,12.77
2017-07-17T08:55:01.133Z,13.40
2017-07-17T08:57:28.782Z,13.13
2017-07-17T08:59:56.405Z,14.50
2017-07-17T09:02:24.779Z,14.03
2017-07-17T09:04:52.427Z,15.73
2017-07-17T09:07:20.052Z,13.20
2017-07-17T09:09:47.655Z,15.33
2017-07-17T09:12:15.315Z,16.03
2017-07-17T09:14:42.938Z,13.00
2017-07-17T09:17:10.560Z,13.60
2017-07-17T09:19:38.198Z,13.70
2017-07-17T09:22:05.812Z,11.73
2017-07-17T09:24:33.415Z,12.97
2017-07-17T09:27:01.099Z,13.37
2017-07-17T09:29:28.712Z,13.53
2017-07-17T09:31:56.326Z,10.83
2017-07-17T09:34:24.732Z,10.00
2017-07-17T09:36:52.785Z,11.20
2017-07-17T09:39:20.407Z,11.17
2017-07-17T09:41:48.069Z,12.30
2017-07-17T09:44:15.692Z,10.47
2017-07-17T09:46:43.329Z,11.90
2017-07-17T09:49:11.744Z,10.40
2017-07-17T09:51:39.407Z,9.47
2017-07-17T09:54:07.029Z,10.27
2017-07-17T09:56:34.664Z,10.13
2017-07-17T09:59:02.285Z,11.40
2017-07-17T10:01:29.903Z,11.23
2017-07-17T10:03:57.555Z,13.30
2017-07-17T10:06:25.185Z,11.30
2017-07-17T10:08:52.807Z,11.67
2017-07-17T10:11:20.721Z,11.07
2017-07-17T10:13:49.105Z,12.13
2017-07-17T10:16:16.767Z,10.10
2017-07-17T10:18:44.413Z,11.53
2017-07-17T10:21:12.021Z,11.00
2017-07-17T10:23:40.410Z,9.80
2017-07-17T10:26:08.062Z,12.37
2017-07-17T10:28:35.741Z,9.30
2017-07-17T10:31:03.345Z,7.87
2017-07-17T10:33:30.994Z,8.00
2017-07-17T10:35:58.619Z,7.90
2017-07-17T10:38:26.990Z,7.00
2017-07-17T10:40:54.648Z,7.60
2017-07-17T10:43:22.267Z,8.10
2017-07-17T10:45:49.888Z,8.90
2017-07-17T10:48:17.517Z,7.20
2017-07-17T10:50:45.137Z,6.83
2017-07-17T10:53:12.757Z,7.70
2017-07-17T10:55:40.401Z,7.60
2017-07-17T10:58:08.014Z,8.03
2017-07-17T11:00:35.623Z,6.53
2017-07-17T11:03:03.269Z,6.47
2017-07-17T11:05:30.881Z,6.97
2017-07-17T11:07:59.303Z,6.63
2017-07-17T11:10:26.924Z,6.40
2017-07-17T11:12:54.533Z,6.70
2017-07-17T11:15:22.928Z,6.00
2017-07-17T11:17:50.584Z,5.13
2017-07-17T11:20:18.228Z,6.23
2017-07-17T11:22:46.792Z,5.40
2017-07-17T11:25:14.437Z,5.07
2017-07-17T11:27:42.065Z,5.53
2017-07-17T11:30:10.449Z,5.73
2017-07-17T11:32:38.092Z,6.03
2017-07-17T11:35:05.691Z,6.00
2017-07-17T11:37:33.312Z,5.13
2017-07-17T11:40:00.947Z,4.80
2017-07-17T11:42:28.543Z,5.43
2017-07-17T11:44:56.938Z,5.67
2017-07-17T11:59:56.871Z,6.43
2017-07-17T12:02:24.493Z,6.53
2017-07-17T12:07:18.845Z,6.33
2017-07-17T12:09:46.557Z,6.83
2017-07-17T12:12:14.196Z,7.50
2017-07-17T12:14:41.818Z,6.70
2017-07-17T12:17:09.436Z,7.70
2017-07-17T12:19:37.091Z,6.87
2017-07-17T12:22:04.701Z,8.00
2017-07-17T12:24:32.309Z,6.13
2017-07-17T12:26:59.971Z,7.20
2017-07-17T12:29:27.581Z,7.60
2017-07-17T12:31:55.954Z,6.73
2017-07-17T12:34:23.628Z,6.50
2017-07-17T12:36:51.261Z,6.60
2017-07-17T12:39:18.886Z,5.80
2017-07-17T12:41:46.528Z,7.03
2017-07-17T12:44:14.165Z,5.23
2017-07-17T12:46:42.544Z,4.87
2017-07-17T12:49:10.176Z,5.33
2017-07-17T12:51:37.821Z,4.90
2017-07-17T12:54:05.438Z,4.43
2017-07-17T12:56:33.097Z,3.90
2017-07-17T12:59:01.487Z,4.73
2017-07-17T13:01:29.101Z,3.87
2017-07-17T13:03:56.738Z,3.07
2017-07-17T13:06:24.340Z,3.67
2017-07-17T13:08:51.961Z,3.03
2017-07-17T13:11:19.645Z,3.10
2017-07-17T13:13:47.383Z,4.10
2017-07-17T13:16:14.999Z,3.97
2017-07-17T13:18:43.441Z,3.53
2017-07-17T13:21:11.065Z,5.10
2017-07-17T13:23:38.684Z,6.00
2017-07-17T13:26:06.329Z,4.70
2017-07-17T13:28:33.961Z,4.40
2017-07-17T13:31:01.576Z,4.53
2017-07-17T13:33:29.220Z,4.00
2017-07-17T13:35:56.847Z,5.73
2017-07-17T13:38:24.475Z,6.03
2017-07-17T13:40:52.135Z,6.20
2017-07-17T13:43:19.847Z,6.73
2017-07-17T13:45:47.489Z,6.20
2017-07-17T13:48:15.130Z,5.37
2017-07-17T13:50:43.514Z,4.80
2017-07-17T13:53:11.137Z,6.13
2017-07-17T13:55:38.777Z,6.83
2017-07-17T13:58:07.158Z,6.07
2017-07-17T14:00:34.776Z,6.60
2017-07-17T14:03:03.197Z,6.00
2017-07-17T14:05:30.817Z,5.30
2017-07-17T14:07:58.433Z,6.13
2017-07-17T14:10:26.081Z,5.90
2017-07-17T14:12:54.462Z,6.57
2017-07-17T14:15:22.084Z,6.63
2017-07-17T14:17:50.492Z,6.10
2017-07-17T14:20:18.098Z,7.17
2017-07-17T14:22:46.514Z,7.17
2017-07-17T14:25:14.162Z,6.60
2017-07-17T14:27:41.800Z,5.93
2017-07-17T14:30:09.415Z,6.50
2017-07-17T14:32:37.109Z,6.13
2017-07-17T14:35:04.751Z,6.67
2017-07-17T14:37:32.382Z,6.40
2017-07-17T14:40:00.034Z,6.67
2017-07-17T14:42:27.679Z,6.60
2017-07-17T14:44:55.306Z,7.50
2017-07-17T14:47:22.978Z,6.53
2017-07-17T14:49:50.614Z,6.87
2017-07-17T14:52:18.247Z,7.97
2017-07-17T14:54:45.940Z,7.43
2017-07-17T14:57:13.587Z,6.70
2017-07-17T14:59:41.215Z,6.83
2017-07-17T15:02:08.866Z,7.20
2017-07-17T15:04:36.485Z,7.03
2017-07-17T15:07:04.095Z,6.90
2017-07-17T15:09:31.747Z,7.37
2017-07-17T15:12:00.163Z,6.67
2017-07-17T15:14:27.770Z,7.10
2017-07-17T15:16:55.412Z,7.70
2017-07-17T15:19:23.790Z,9.63
2017-07-17T15:21:51.400Z,8.57
2017-07-17T15:24:19.268Z,7.10
2017-07-17T15:26:47.644Z,8.20
2017-07-17T15:29:16.046Z,9.87
2017-07-17T15:31:43.684Z,9.30
2017-07-17T15:34:11.297Z,8.83
2017-07-17T15:36:39.677Z,9.20
2017-07-17T15:39:07.332Z,9.30
2017-07-17T15:41:34.945Z,9.27
2017-07-17T15:44:03.325Z,10.53
2017-07-17T15:46:31.053Z,8.90
2017-07-17T15:48:59.417Z,9.47
2017-07-17T15:51:27.795Z,8.60
2017-07-17T15:53:55.460Z,11.17
2017-07-17T15:56:23.078Z,10.80
2017-07-17T15:58:50.686Z,10.33
2017-07-17T16:01:18.333Z,9.57
2017-07-17T16:03:45.984Z,10.20
2017-07-17T16:06:13.592Z,10.27
2017-07-17T16:08:42.612Z,10.47
2017-07-17T16:11:10.313Z,9.07
2017-07-17T16:13:39.440Z,9.60
2017-07-17T16:16:07.147Z,10.87
2017-07-17T16:18:34.760Z,9.97
2017-07-17T16:21:03.146Z,10.20
2017-07-17T16:23:31.949Z,9.17
2017-07-17T16:25:59.679Z,11.10
2017-07-17T16:28:27.301Z,11.00
2017-07-17T16:30:55.700Z,10.20
2017-07-17T16:33:23.309Z,11.93
2017-07-17T16:35:50.916Z,10.27
2017-07-17T16:38:18.566Z,10.30
2017-07-17T16:40:46.171Z,10.17
2017-07-17T16:43:13.785Z,11.73
2017-07-17T16:45:42.200Z,11.70
2017-07-17T16:48:09.817Z,10.67
2017-07-17T16:50:37.439Z,13.20
2017-07-17T16:53:05.859Z,10.43
2017-07-17T16:55:33.471Z,12.20
2017-07-17T16:58:01.101Z,13.07
2017-07-17T17:00:28.753Z,14.30
2017-07-17T17:02:57.140Z,13.20
2017-07-17T17:05:24.754Z,11.97
2017-07-17T17:07:53.178Z,14.80
2017-07-17T17:10:20.797Z,13.47
2017-07-17T17:12:48.420Z,14.07
2017-07-17T17:15:16.105Z,12.73
2017-07-17T17:17:43.777Z,15.50
2017-07-17T17:20:11.394Z,16.13
2017-07-17T17:22:39.044Z,14.77
2017-07-17T17:25:06.680Z,15.67
2017-07-17T17:27:34.319Z,15.00
2017-07-17T17:30:01.979Z,13.60
2017-07-17T17:32:29.608Z,12.40
2017-07-17T17:34:57.245Z,11.97
2017-07-17T17:37:24.889Z,12.60
2017-07-17T17:39:52.504Z,13.93
2017-07-17T17:42:20.130Z,14.50
2017-07-17T17:44:47.848Z,13.53
2017-07-17T17:47:15.517Z,14.20
2017-07-17T17:49:43.133Z,14.03
2017-07-17T17:52:10.780Z,14.67
2017-07-17T17:54:38.389Z,12.40
2017-07-17T17:57:06.005Z,12.33
2017-07-17T17:59:33.661Z,10.60
2017-07-17T18:02:01.320Z,11.33
2017-07-17T18:04:28.932Z,9.87
2017-07-17T18:06:56.590Z,7.83
2017-07-17T18:09:24.187Z,8.50
2017-07-17T18:11:52.557Z,9.00
2017-07-17T18:14:20.233Z,7.57
2017-07-17T18:16:47.885Z,5.90
2017-07-17T18:19:15.512Z,7.13
2017-07-17T18:21:43.177Z,6.43
2017-07-17T18:24:10.797Z,7.87
2017-07-17T18:26:38.401Z,7.10
2017-07-17T18:29:06.199Z,6.50
2017-07-17T18:31:33.799Z,6.30
2017-07-17T18:34:01.406Z,6.73
2017-07-17T18:36:29.083Z,6.33
2017-07-17T18:38:56.702Z,7.07
2017-07-17T18:41:24.374Z,6.90
2017-07-17T18:43:52.024Z,6.33
2017-07-17T18:46:19.671Z,7.53
2017-07-17T18:48:47.349Z,6.43
2017-07-17T18:51:15.787Z,6.77
2017-07-17T18:53:43.413Z,6.33
2017-07-17T18:56:11.153Z,5.93
2017-07-17T18:58:38.853Z,6.53
2017-07-17T19:01:07.272Z,6.90
2017-07-17T19:03:34.890Z,6.37
2017-07-17T19:06:02.543Z,5.53
2017-07-17T19:08:30.157Z,6.30
2017-07-17T19:10:58.532Z,6.67
2017-07-17T19:13:26.186Z,5.87
2017-07-17T19:15:53.801Z,6.70
2017-07-17T19:18:22.191Z,6.97
2017-07-17T19:20:49.848Z,5.93
2017-07-17T19:23:17.468Z,7.63
2017-07-17T19:25:46.043Z,6.63
2017-07-17T19:28:13.716Z,8.33
2017-07-17T19:30:41.350Z,7.70
2017-07-17T19:33:08.986Z,7.45
2017-07-17T19:35:36.658Z,8.88
2017-07-17T19:38:04.333Z,8.70
2017-07-17T19:40:31.949Z,9.20
2017-07-17T19:42:59.620Z,7.57
2017-07-17T19:45:27.257Z,7.20
2017-07-17T19:47:54.889Z,7.30
2017-07-17T19:50:22.570Z,7.93
2017-07-17T19:52:50.213Z,7.53
2017-07-17T19:55:21.242Z,8.30
2017-07-17T19:57:48.922Z,9.45
2017-07-17T20:00:16.561Z,10.23
2017-07-17T20:02:44.187Z,9.25
2017-07-17T20:05:12.619Z,8.88
2017-07-17T20:07:40.336Z,7.70
2017-07-17T20:10:07.979Z,9.00
2017-07-17T20:12:35.733Z,8.05
2017-07-17T20:15:03.381Z,9.13
2017-07-17T20:17:31.039Z,10.35
2017-07-17T20:19:58.710Z,9.25
2017-07-17T20:22:26.352Z,9.18
2017-07-17T20:24:54.028Z,9.15
2017-07-17T20:27:22.464Z,11.10
2017-07-17T20:29:50.103Z,11.18
2017-07-17T20:32:24.570Z,10.07
2017-07-17T20:34:52.755Z,9.80
2017-07-17T20:37:20.383Z,10.23
2017-07-17T20:39:48.097Z,9.88
2017-07-17T20:42:16.514Z,10.82
2017-07-17T20:44:44.147Z,9.98
2017-07-17T20:47:11.809Z,11.10
2017-07-17T20:49:39.445Z,10.68
2017-07-17T20:52:07.122Z,10.45
2017-07-17T20:54:35.561Z,10.55
2017-07-17T20:57:03.214Z,11.65
2017-07-17T20:59:30.847Z,11.55
2017-07-17T21:01:58.516Z,11.40
2017-07-17T21:04:26.137Z,9.93
2017-07-17T21:06:53.771Z,9.88
2017-07-17T21:09:21.437Z,10.05
2017-07-17T21:11:49.064Z,9.68
2017-07-17T21:14:16.730Z,10.50
2017-07-17T21:16:44.384Z,9.48
2017-07-17T21:19:12.018Z,10.35
2017-07-17T21:21:39.660Z,10.73
2017-07-17T21:24:07.349Z,11.35
2017-07-17T21:26:35.005Z,11.93
2017-07-17T21:29:02.640Z,12.15
2017-07-17T21:31:31.081Z,11.43
2017-07-17T21:33:58.716Z,11.73
2017-07-17T21:36:26.657Z,11.25
2017-07-17T21:38:54.383Z,11.43
2017-07-17T21:41:22.045Z,11.50
2017-07-17T21:43:49.682Z,11.73
2017-07-17T21:46:18.760Z,9.88
2017-07-17T21:48:46.388Z,10.68
2017-07-17T21:51:14.026Z,9.15
2017-07-17T21:53:42.452Z,10.65
2017-07-17T21:56:10.121Z,11.20
2017-07-17T21:58:38.529Z,11.63
2017-07-17T22:01:06.192Z,9.50
2017-07-17T22:03:33.822Z,11.12
2017-07-17T22:06:01.481Z,12.13
2017-07-17T22:08:29.144Z,12.63
2017-07-17T22:10:56.788Z,11.48
2017-07-17T22:13:24.403Z,9.88
2017-07-17T22:15:52.073Z,11.32
2017-07-17T22:18:19.709Z,11.10
2017-07-17T22:20:47.353Z,11.63
2017-07-17T22:23:15.025Z,11.23
2017-07-17T22:25:42.652Z,9.55
2017-07-17T22:28:10.284Z,12.20
2017-07-17T22:30:37.970Z,12.55
2017-07-17T22:33:05.613Z,11.07
2017-07-17T22:35:33.259Z,10.40
2017-07-17T22:38:00.926Z,10.63
2017-07-17T22:40:28.556Z,9.25
2017-07-17T22:42:56.191Z,10.30
2017-07-17T22:45:23.866Z,10.77
2017-07-17T22:47:51.498Z,10.55
2017-07-17T22:50:19.138Z,12.07
2017-07-17T22:52:46.796Z,10.00
2017-07-17T22:55:14.419Z,11.10
2017-07-17T22:57:42.053Z,10.00
2017-07-17T23:00:09.719Z,9.38
2017-07-17T23:02:37.363Z,11.98
2017-07-17T23:05:05.017Z,11.12
2017-07-17T23:07:32.695Z,10.27
2017-07-17T23:10:01.081Z,10.55
2017-07-17T23:12:28.716Z,11.80
2017-07-17T23:14:57.146Z,11.65
2017-07-17T23:17:24.788Z,11.35
2017-07-17T23:19:52.434Z,10.90
2017-07-17T23:22:20.093Z,11.32
2017-07-17T23:24:47.728Z,11.18
2017-07-17T23:27:15.364Z,8.45
2017-07-17T23:29:43.029Z,10.40
2017-07-17T23:32:10.664Z,10.43
2017-07-17T23:34:38.311Z,12.70
2017-07-17T23:37:05.982Z,10.70
2017-07-17T23:39:33.616Z,11.65
2017-07-17T23:42:01.257Z,10.63
2017-07-17T23:44:28.921Z,12.27
2017-07-17T23:46:56.553Z,10.70
2017-07-17T23:49:24.187Z,11.55
2017-07-17T23:51:51.843Z,10.10
2017-07-17T23:54:19.487Z,12.32
2017-07-17T23:56:47.129Z,11.12
2017-07-17T23:59:14.779Z,10.48
